Latest Coastal Weather Observations for Double Island Point

IDQ60701

Issued at 12:22 am EST Thursday 30 January 2020 (issued every 10 minutes, with the page automatically refreshed every 10 minutes)

About coastal observations | Map of coastal stations | Coastal observations for QLD | Marine services | Other Formats
Station Details ID: 040068 Name: DOUBLE ISLAND POINT LIGHTHOUSE Lat: -25.93 Lon: 153.19 Height: 95.64 m
Data from the previous 72 hours. | See also: Recent months at Double Island Point
Date/Time
EST
Wind Sea
Height
m
Swell Vis
km
Cloud Weather Temp
°C
Press
hPa
Rain since
9am
mm
Dir  Spd
kts
Gust
kts
Height
m
Period
s
Dir
30/12:00am NE 7 10 - - - - - - - 25.1 1014.1 0.0
 
Date/Time
EST
Wind Sea
Height
m
Swell Vis
km
Cloud Weather Temp
°C
Press
hPa
Rain since
9am
mm
Dir  Spd
kts
Gust
kts
Height
m
Period
s
Dir
29/11:30pm NE 7 10 - - - - - - - 25.1 1014.3 0.0
29/11:00pm NE 7 9 - - - - - - - 25.4 1014.5 0.0
29/10:30pm NNE 8 9 - - - - - - - 25.5 1014.4 0.0
29/10:00pm NNE 8 9 - - - - - - - 25.5 1014.4 0.0
29/09:30pm NNE 9 10 - - - - - - - 25.6 1014.4 0.0
29/09:00pm NNE 10 12 - - - - - - - 25.6 1014.1 0.0
29/08:30pm NNE 10 13 - - - - - - - 25.7 1013.8 0.0
29/08:00pm NE 9 12 - - - - - - - 25.8 1013.6 0.0
29/07:30pm NE 9 11 - - - - - - - 25.8 1013.5 0.0
29/07:00pm NE 8 11 - - - - - - - 26.2 1013.4 0.0
29/06:30pm NE 8 11 - - - - - - - 26.9 1013.0 0.0
29/06:00pm NE 7 11 - - - - - - - 27.7 1012.6 0.0
29/05:30pm NE 7 11 - - - - - - - 28.1 1012.3 0.0
29/05:00pm ENE 10 13 - - - - - - - 27.6 1012.2 0.0
29/04:30pm NE 8 12 - - - - - - - 27.9 1012.1 0.0
29/04:00pm NE 10 14 - - - - - - - 27.9 1012.2 0.0
29/03:30pm ENE 8 11 - - - - - - - 28.6 1012.6 0.0
29/03:00pm NE 7 11 - - - - - - - 30.2 1012.8 0.0
29/02:30pm NE 6 9 - - - - - - - 31.8 1012.8 0.0
29/02:00pm NNE 7 10 - - - - - - - 31.8 1012.9 0.0
29/01:30pm NE 7 10 - - - - - - - 31.8 1013.1 0.0
29/01:00pm NNE 7 11 - - - - - - - 31.7 1013.2 0.0
29/12:30pm NNE 10 12 - - - - - - - 31.3 1013.6 0.0
29/12:00pm NNE 9 11 - - - - - - - 30.6 1013.9 0.0
29/11:30am NE 6 9 - - - - - - - 30.9 1014.2 0.0
29/11:00am NE 5 7 - - - - - - - 30.8 1014.6 0.0
29/10:30am ENE 6 8 - - - - - - - 29.7 1014.8 0.0
29/10:00am NNE 6 6 - - - - - - - 28.8 1015.1 0.0
29/09:30am NNE 6 7 - - - - - - - 28.0 1015.0 0.0
29/09:00am NNE 5 6 - - - - - - - 27.6 1014.9 3.2
29/08:30am NNE 4 6 - - - - - - - 27.8 1014.7 3.2
29/08:00am NNE 4 6 - - - - - - - 27.4 1014.5 3.2
29/07:30am NNE 2 4 - - - - - - - 26.4 1014.3 3.2
29/07:00am NNE 2 4 - - - - - - - 25.9 1014.3 3.2
29/06:30am NNE 4 5 - - - - - - - 24.4 1014.0 3.2
29/06:00am NNE 1 4 - - - - - - - 24.9 1013.9 3.2
29/05:30am NNE 3 4 - - - - - - - 24.4 1013.7 3.2
29/05:00am NNE 4 5 - - - - - - - 24.4 1013.3 3.2
29/04:30am NNE 2 4 - - - - - - - 24.5 1013.1 3.2
29/04:00am NNE 5 8 - - - - - - - 24.6 1012.9 3.2
29/03:30am N 6 9 - - - - - - - 24.5 1012.6 3.2
29/03:00am N 5 9 - - - - - - - 24.6 1012.6 3.2
29/02:30am N 4 6 - - - - - - - 24.6 1012.8 3.2
29/02:00am NNE 5 9 - - - - - - - 24.6 1012.8 3.2
29/01:30am NNE 4 8 - - - - - - - 24.4 1013.0 3.2
29/01:00am NNE 4 7 - - - - - - - 24.6 1013.4 3.2
29/12:30am NNE 7 10 - - - - - - - 24.7 1013.7 3.2
29/12:00am NNE 8 9 - - - - - - - 24.9 1013.9 3.2
 
Date/Time
EST
Wind Sea
Height
m
Swell Vis
km
Cloud Weather Temp
°C
Press
hPa
Rain since
9am
mm
Dir  Spd
kts
Gust
kts
Height
m
Period
s
Dir
28/11:30pm NE 7 10 - - - - - - - 24.7 1014.1 3.2
28/11:00pm NNE 8 11 - - - - - - - 24.9 1014.5 3.2
28/10:30pm E 5 6 - - - - - - - 25.0 1014.7 3.2
28/10:00pm E 5 6 - - - - - - - 24.9 1014.8 3.2
28/09:30pm E 4 6 - - - - - - - 25.0 1014.7 3.2
28/09:00pm E 7 8 - - - - - - - 25.1 1014.5 3.2
28/08:30pm E 8 9 - - - - - - - 25.1 1014.3 3.2
28/08:00pm E 9 11 - - - - - - - 25.1 1014.0 3.2
28/07:30pm E 8 10 - - - - - - - 25.2 1013.9 3.2
28/07:00pm E 9 11 - - - - - - - 25.1 1013.5 3.2
28/06:30pm ESE 10 12 - - - - - - - 25.0 1013.2 3.2
28/06:00pm ESE 9 11 - - - - - - - 25.1 1012.8 3.2
28/05:30pm E 8 10 - - - - - - - 25.8 1012.5 3.2
28/05:00pm ESE 10 13 - - - - - - - 25.3 1012.2 3.2
28/04:30pm ESE 12 14 - - - - - - - 25.5 1012.2 3.2
28/04:00pm SE 8 11 - - - - - - - 25.8 1012.1 3.2
28/03:30pm ESE 9 11 - - - - - - - 25.8 1012.2 3.2
28/03:00pm SE 10 12 - - - - - - - 25.7 1012.4 3.0
28/02:30pm SE 9 10 - - - - - - - 25.4 1012.7 3.0
28/02:00pm ESE 5 8 - - - - - - - 24.8 1012.9 3.0
28/01:30pm E 9 12 - - - - - - - 24.7 1013.2 2.6
28/01:00pm E 5 7 - - - - - - - 24.5 1013.5 2.2
28/12:30pm ESE 13 16 - - - - - - - 25.2 1013.6 0.2
28/12:00pm ESE 9 12 - - - - - - Rain 25.2 1013.6 0.2
28/11:30am SSE 9 10 - - - - - - - 26.4 1013.7 0.0
28/11:00am SSE 9 11 - - - - - - - 25.5 1013.9 0.0
28/10:30am SE 9 11 - - - - - - - 25.7 1013.9 0.0
28/10:00am E 6 7 - - - - - - - 27.1 1013.6 0.0
28/09:30am NE 5 7 - - - - - - - 26.3 1013.5 0.0
28/09:00am NNE 2 5 - - - - - - - 25.6 1013.5 10.6
28/08:30am NNE 3 5 - - - - - - - 24.0 1013.6 10.6
28/08:00am NNE 5 8 - - - - - - - 23.4 1013.4 10.6
28/07:30am NNE 5 9 - - - - - - - 22.8 1013.6 9.8
28/07:00am NE 7 11 - - - - - - - 22.5 1013.6 9.2
28/06:30am ENE 12 17 - - - - - - - 22.6 1013.5 7.6
28/06:00am NE 9 14 - - - - - - Rain 23.1 1013.2 3.0
28/05:30am ENE 12 19 - - - - - - - 23.2 1012.7 0.2
28/05:00am E 6 7 - - - - - - - 23.7 1012.2 0.2
28/04:30am E 6 8 - - - - - - - 23.4 1012.0 0.2
28/04:00am E 7 9 - - - - - - - 23.3 1012.0 0.2
28/03:30am ENE 9 12 - - - - - - - 23.3 1012.1 0.2
28/03:00am ENE 6 7 - - - - - - Recent precip. 23.6 1012.0 0.2
28/02:30am ENE 5 6 - - - - - - - 23.6 1012.3 0.2
28/02:00am ENE 12 15 - - - - - - - 23.5 1012.3 0.0
28/01:30am ESE 18 21 - - - - - - - 23.9 1012.4 0.0
28/01:00am E 13 15 - - - - - - - 23.8 1012.6 0.0
28/12:30am ESE 11 13 - - - - - - - 24.1 1012.8 0.0
28/12:00am ESE 15 19 - - - - - - - 24.3 1013.2 0.0
 
Date/Time
EST
Wind Sea
Height
m
Swell Vis
km
Cloud Weather Temp
°C
Press
hPa
Rain since
9am
mm
Dir  Spd
kts
Gust
kts
Height
m
Period
s
Dir
27/11:30pm ESE 16 19 - - - - - - - 24.6 1013.2 0.0
27/11:00pm ESE 17 20 - - - - - - - 24.1 1013.4 0.0
27/10:30pm ESE 19 20 - - - - - - - 24.3 1013.4 0.0
27/10:00pm ESE 18 21 - - - - - - - 24.6 1013.5 0.0
27/09:30pm ESE 18 20 - - - - - - - 24.5 1013.8 0.0
27/09:00pm ESE 16 19 - - - - - - - 24.6 1013.8 0.0
27/08:30pm E 18 19 - - - - - - - 24.8 1013.4 0.0
27/08:00pm E 17 19 - - - - - - - 25.1 1013.3 0.0
27/07:30pm ESE 16 18 - - - - - - - 25.1 1013.2 0.0
27/07:00pm ESE 17 19 - - - - - - - 25.1 1012.8 0.0
27/06:30pm ESE 15 16 - - - - - - - 25.6 1012.7 0.0
27/06:00pm SE 13 15 - - - - - - - 25.7 1012.3 0.0
27/05:30pm ESE 13 15 - - - - - - - 25.8 1011.8 0.0
27/05:00pm ESE 14 16 - - - - - - - 26.2 1011.7 0.0
27/04:30pm ESE 14 17 - - - - - - - 26.1 1011.6 0.0
27/04:00pm ESE 14 16 - - - - - - - 26.4 1011.6 0.0
27/03:30pm ESE 14 16 - - - - - - - 27.3 1011.7 0.0
27/03:00pm ESE 14 17 - - - - - - - 27.0 1011.8 0.0
27/02:30pm ESE 13 15 - - - - - - - 27.8 1012.1 0.0
27/02:00pm ESE 13 15 - - - - - - - 27.7 1012.3 0.0
27/01:30pm ESE 13 15 - - - - - - - 27.8 1012.6 0.0
27/01:00pm ESE 13 15 - - - - - - - 28.9 1012.8 0.0
27/12:30pm ESE 12 14 - - - - - - - 28.7 1013.2 0.0
27/12:00pm ESE 10 12 - - - - - - - 28.4 1013.3 0.0
27/11:30am ESE 11 12 - - - - - - - 29.2 1013.6 0.0
27/11:00am ESE 9 11 - - - - - - - 29.4 1013.7 0.0
27/10:30am E 8 10 - - - - - - - 28.2 1013.9 0.0
27/10:00am E 9 10 - - - - - - - 28.5 1013.8 0.0
27/09:30am ESE 9 10 - - - - - - - 27.3 1013.8 0.0
27/09:00am SE 9 11 - - - - - - - 27.2 1013.7 0.0
27/08:30am ESE 10 11 - - - - - - - 27.1 1013.7 0.0
27/08:00am E 11 13 - - - - - - - 27.5 1013.4 0.0
27/07:30am E 12 14 - - - - - - - 26.0 1013.2 0.0
27/07:00am E 13 15 - - - - - - - 26.0 1012.9 0.0
27/06:30am E 14 16 - - - - - - - 25.0 1012.4 0.0
27/06:00am E 13 15 - - - - - - - 24.7 1012.3 0.0
27/05:30am E 13 16 - - - - - - - 24.4 1012.1 0.0
27/05:00am E 14 16 - - - - - - - 24.4 1011.8 0.0
27/04:30am ENE 14 16 - - - - - - - 24.6 1011.7 0.0
27/04:00am E 13 16 - - - - - - - 24.6 1011.6 0.0
27/03:30am E 15 16 - - - - - - - 24.7 1011.5 0.0
27/03:00am E 14 16 - - - - - - - 24.7 1011.6 0.0
27/02:30am E 13 17 - - - - - - - 24.7 1012.0 0.0
27/02:00am E 15 17 - - - - - - - 24.7 1012.3 0.0
27/01:30am E 16 18 - - - - - - - 24.8 1012.4 0.0
27/01:00am E 15 17 - - - - - - - 24.7 1012.8 0.0
27/12:30am ENE 14 17 - - - - - - - 24.9 1013.1 0.0

Other formats

Comma delimited format used in spreadsheet applications
http://www.bom.gov.au/fwo/IDQ60701/IDQ60701.94584.axf

JavaScript Object Notation format (JSON) in row-major order
http://www.bom.gov.au/fwo/IDQ60701/IDQ60701.94584.json

Data quality

Most of these data are generated automatically and are frequently updated. Quality checks on data are not normally performed. It is possible for incorrect values to appear. Refer to information at About Latest Weather Observations and please check the disclaimer before using these data.